createdAt,value
2022-10-17T00:00:13.134Z,99.99
2022-10-17T00:01:13.121Z,99.99
2022-10-17T00:02:13.040Z,99.99
2022-10-17T00:03:13.034Z,99.99
2022-10-17T00:04:13.010Z,99.99
2022-10-17T00:05:13.007Z,99.99
2022-10-17T00:06:13.056Z,99.99
2022-10-17T00:07:13.014Z,99.99
2022-10-17T00:08:12.969Z,99.99
2022-10-17T00:09:12.961Z,99.99
2022-10-17T00:10:12.949Z,99.99
2022-10-17T00:11:12.942Z,99.99
2022-10-17T00:12:12.946Z,99.99
2022-10-17T00:13:12.923Z,99.99
2022-10-17T00:14:12.923Z,99.99
2022-10-17T00:15:12.895Z,99.99
2022-10-17T00:16:12.888Z,99.99
2022-10-17T00:17:12.907Z,99.99
2022-10-17T00:18:12.891Z,99.99
2022-10-17T00:19:12.849Z,99.99
2022-10-17T00:20:12.848Z,99.99
2022-10-17T00:21:12.841Z,99.99
2022-10-17T00:22:12.838Z,99.99
2022-10-17T00:23:12.824Z,99.99
2022-10-17T00:24:12.786Z,99.99
2022-10-17T00:25:12.830Z,99.99
2022-10-17T00:26:12.768Z,99.99
2022-10-17T00:27:12.766Z,99.99
2022-10-17T00:28:12.788Z,99.99
2022-10-17T00:29:12.743Z,99.99
2022-10-17T00:30:12.728Z,99.99
2022-10-17T00:31:12.791Z,99.99
2022-10-17T00:32:12.703Z,99.99
2022-10-17T00:33:12.706Z,99.99
2022-10-17T00:34:12.710Z,99.99
2022-10-17T00:35:12.703Z,99.99
2022-10-17T00:36:12.667Z,99.99
2022-10-17T00:37:12.640Z,99.99
2022-10-17T00:38:12.654Z,99.99
2022-10-17T00:39:12.624Z,99.99
2022-10-17T00:40:12.609Z,99.99
2022-10-17T00:41:12.638Z,99.99
2022-10-17T00:42:12.602Z,99.99
2022-10-17T00:43:12.583Z,99.99
2022-10-17T00:44:12.583Z,99.99
2022-10-17T00:45:12.567Z,99.99
2022-10-17T00:46:12.578Z,99.99
2022-10-17T00:47:12.537Z,99.99
2022-10-17T00:48:12.543Z,99.99
2022-10-17T00:49:12.514Z,99.99
2022-10-17T00:50:12.522Z,99.99
2022-10-17T00:51:12.513Z,99.99
2022-10-17T00:52:12.515Z,99.99
2022-10-17T00:53:12.472Z,99.99
2022-10-17T00:54:12.486Z,99.99
2022-10-17T00:55:12.454Z,99.99
2022-10-17T00:56:12.489Z,99.99
2022-10-17T00:57:12.496Z,99.99
2022-10-17T00:58:12.415Z,99.99
2022-10-17T00:59:12.427Z,99.99
2022-10-17T01:00:12.409Z,99.99
2022-10-17T01:01:12.408Z,99.99
2022-10-17T01:02:12.378Z,99.99
2022-10-17T01:03:12.373Z,99.99
2022-10-17T01:04:12.347Z,99.99
2022-10-17T01:05:12.338Z,99.99
2022-10-17T01:06:12.340Z,99.99
2022-10-17T01:07:12.323Z,99.99
2022-10-17T01:08:12.302Z,99.99
2022-10-17T01:09:12.291Z,99.99
2022-10-17T01:10:12.401Z,99.99
2022-10-17T01:11:12.287Z,99.99
2022-10-17T01:12:12.258Z,99.99
2022-10-17T01:13:12.252Z,99.99
2022-10-17T01:14:12.225Z,99.99
2022-10-17T01:15:12.238Z,99.99
2022-10-17T01:16:12.238Z,99.99
2022-10-17T01:17:12.215Z,99.99
2022-10-17T01:18:12.218Z,99.99
2022-10-17T01:19:12.188Z,99.99
2022-10-17T01:20:12.205Z,99.99
2022-10-17T01:21:12.153Z,99.99
2022-10-17T01:22:12.140Z,99.99
2022-10-17T01:23:12.158Z,99.99
2022-10-17T01:24:12.126Z,99.99
2022-10-17T01:25:12.110Z,99.99
2022-10-17T01:26:12.136Z,99.99
2022-10-17T01:27:12.090Z,99.99
2022-10-17T01:28:12.062Z,99.99
2022-10-17T01:29:12.100Z,99.99
2022-10-17T01:30:12.047Z,99.99
2022-10-17T01:31:12.051Z,99.99
2022-10-17T01:32:12.024Z,99.99
2022-10-17T01:33:12.036Z,99.99
2022-10-17T01:34:12.029Z,99.99
2022-10-17T01:35:12.008Z,99.99
2022-10-17T01:36:11.998Z,99.99
2022-10-17T01:37:11.987Z,99.99
2022-10-17T01:38:11.969Z,99.99
2022-10-17T01:39:11.997Z,99.99
2022-10-17T01:40:11.933Z,99.99
2022-10-17T01:41:11.949Z,99.99
2022-10-17T01:42:11.918Z,99.99
2022-10-17T01:43:11.913Z,99.99
2022-10-17T01:44:11.918Z,99.99
2022-10-17T01:45:11.877Z,99.99
2022-10-17T01:46:11.860Z,99.99
2022-10-17T01:47:11.863Z,99.99
2022-10-17T01:48:11.843Z,99.99
2022-10-17T01:49:11.867Z,99.99
2022-10-17T01:50:11.845Z,99.99
2022-10-17T01:51:11.814Z,99.99
2022-10-17T01:52:11.823Z,99.99
2022-10-17T01:53:11.792Z,99.99
2022-10-17T01:54:11.796Z,99.99
2022-10-17T01:55:11.783Z,99.99
2022-10-17T01:56:11.761Z,99.99
2022-10-17T01:57:11.760Z,99.99
2022-10-17T01:58:11.753Z,99.99
2022-10-17T01:59:11.781Z,99.99
2022-10-17T02:00:11.710Z,99.99
2022-10-17T02:01:11.771Z,99.99
2022-10-17T02:02:11.714Z,99.99
2022-10-17T02:03:11.690Z,99.99
2022-10-17T02:04:11.683Z,99.99
2022-10-17T02:05:11.674Z,99.99
2022-10-17T02:06:11.645Z,99.99
2022-10-17T02:07:11.649Z,99.99
2022-10-17T02:08:11.616Z,99.99
2022-10-17T02:09:11.641Z,99.99
2022-10-17T02:10:11.637Z,99.99
2022-10-17T02:11:11.579Z,99.99
2022-10-17T02:12:11.598Z,99.99
2022-10-17T02:13:11.575Z,99.99
2022-10-17T02:15:11.560Z,99.99
2022-10-17T02:16:11.532Z,99.99
2022-10-17T02:17:11.571Z,99.99
2022-10-17T02:18:11.556Z,99.99
2022-10-17T02:19:11.504Z,99.99
2022-10-17T02:20:11.482Z,99.99
2022-10-17T02:21:11.479Z,99.99
2022-10-17T02:22:11.473Z,99.99
2022-10-17T02:23:11.518Z,99.99
2022-10-17T02:24:11.444Z,99.99
2022-10-17T02:25:11.448Z,99.99
2022-10-17T02:26:11.425Z,99.99
2022-10-17T02:27:11.413Z,99.99
2022-10-17T02:28:11.426Z,99.99
2022-10-17T02:29:11.388Z,99.99
2022-10-17T02:30:11.411Z,99.99
2022-10-17T02:31:11.371Z,99.99
2022-10-17T02:32:11.409Z,99.99
2022-10-17T02:33:11.371Z,99.99
2022-10-17T02:34:11.329Z,99.99
2022-10-17T02:35:11.358Z,99.99
2022-10-17T02:36:11.309Z,99.99
2022-10-17T02:37:11.297Z,99.99
2022-10-17T02:38:11.317Z,99.99
2022-10-17T02:39:11.310Z,99.99
2022-10-17T02:40:11.275Z,99.99
2022-10-17T02:41:11.259Z,99.99
2022-10-17T02:42:11.254Z,99.99
2022-10-17T02:43:11.251Z,99.99
2022-10-17T02:44:11.255Z,99.99
2022-10-17T02:45:11.206Z,99.99
2022-10-17T02:46:11.212Z,99.99
2022-10-17T02:47:11.193Z,99.99
2022-10-17T02:48:11.178Z,99.99
2022-10-17T02:49:11.166Z,99.99
2022-10-17T02:50:11.166Z,99.99
2022-10-17T02:51:11.146Z,99.99
2022-10-17T02:52:11.143Z,99.99
2022-10-17T02:53:11.121Z,99.99
2022-10-17T02:54:11.121Z,99.99
2022-10-17T02:55:11.132Z,99.99
2022-10-17T02:56:11.135Z,99.99
2022-10-17T02:57:11.078Z,99.99
2022-10-17T02:58:11.069Z,99.99
2022-10-17T02:59:11.107Z,99.99
2022-10-17T03:00:11.046Z,99.99
2022-10-17T03:01:11.103Z,99.99
2022-10-17T03:02:11.028Z,99.99
2022-10-17T03:03:11.018Z,99.99
2022-10-17T03:04:11.023Z,99.99
2022-10-17T03:05:10.998Z,99.99
2022-10-17T03:06:10.990Z,99.99
2022-10-17T03:07:10.964Z,99.99
2022-10-17T03:08:10.982Z,99.99
2022-10-17T03:09:10.946Z,99.99
2022-10-17T03:10:10.929Z,99.99
2022-10-17T03:11:10.939Z,99.99
2022-10-17T03:12:10.940Z,99.99
2022-10-17T03:13:10.911Z,99.99
2022-10-17T03:14:10.884Z,99.99
2022-10-17T03:15:10.885Z,99.99
2022-10-17T03:16:10.898Z,99.99
2022-10-17T03:17:10.872Z,99.99
2022-10-17T03:18:10.843Z,99.99
2022-10-17T03:19:10.845Z,99.99
2022-10-17T03:20:10.848Z,99.99
2022-10-17T03:21:10.828Z,99.99
2022-10-17T03:22:10.808Z,99.99
2022-10-17T03:23:10.789Z,99.99
2022-10-17T03:24:10.779Z,99.99
2022-10-17T03:25:10.764Z,99.99
2022-10-17T03:26:10.772Z,99.99
2022-10-17T03:27:10.742Z,99.99
2022-10-17T03:28:10.733Z,99.95
2022-10-17T03:29:10.847Z,99.54
2022-10-17T03:30:10.712Z,99.43
2022-10-17T03:31:10.699Z,99.22
2022-10-17T03:32:10.714Z,98.60
2022-10-17T03:33:10.711Z,99.02
2022-10-17T03:34:10.654Z,98.71
2022-10-17T03:35:14.818Z,98.91
2022-10-17T03:36:10.673Z,98.81
2022-10-17T03:37:10.629Z,98.96
2022-10-17T03:38:10.661Z,99.02
2022-10-17T03:39:10.659Z,99.06
2022-10-17T03:40:10.606Z,99.16
2022-10-17T03:41:10.574Z,99.85
2022-10-17T03:42:10.569Z,99.22
2022-10-17T03:43:10.559Z,98.91
2022-10-17T03:44:10.587Z,98.60
2022-10-17T03:45:10.550Z,98.60
2022-10-17T03:46:10.657Z,98.91
2022-10-17T03:47:13.362Z,99.33
2022-10-17T03:48:10.528Z,99.12
2022-10-17T03:49:10.494Z,99.33
2022-10-17T03:50:10.491Z,99.54
2022-10-17T03:51:10.506Z,99.22
2022-10-17T03:52:10.489Z,99.33
2022-10-17T03:53:10.525Z,99.16
2022-10-17T03:54:10.454Z,98.96
2022-10-17T03:55:10.424Z,99.48
2022-10-17T03:56:10.411Z,99.79
2022-10-17T03:57:10.465Z,99.27
2022-10-17T03:58:10.390Z,99.90
2022-10-17T03:59:10.373Z,99.74
2022-10-17T04:00:10.391Z,99.22
2022-10-17T04:01:10.384Z,99.43
2022-10-17T04:02:10.336Z,99.43
2022-10-17T04:03:14.955Z,99.22
2022-10-17T04:04:10.320Z,99.43
2022-10-17T04:05:10.313Z,99.85
2022-10-17T04:06:10.319Z,99.54
2022-10-17T04:07:10.298Z,99.79
2022-10-17T04:08:10.305Z,99.37
2022-10-17T04:09:10.282Z,99.27
2022-10-17T04:10:10.248Z,99.42
2022-10-17T04:11:10.257Z,99.63
2022-10-17T04:12:10.246Z,99.63
2022-10-17T04:13:10.231Z,99.99
2022-10-17T04:14:10.245Z,99.99
2022-10-17T04:15:10.211Z,99.99
2022-10-17T04:16:10.253Z,99.99
2022-10-17T04:17:10.182Z,99.99
2022-10-17T04:18:10.201Z,99.99
2022-10-17T04:19:10.176Z,99.99
2022-10-17T04:20:10.171Z,99.99
2022-10-17T04:21:10.157Z,99.99
2022-10-17T04:22:10.120Z,99.99
2022-10-17T04:23:10.163Z,99.99
2022-10-17T04:24:10.130Z,99.99
2022-10-17T04:25:10.115Z,99.99
2022-10-17T04:26:10.086Z,99.99
2022-10-17T04:27:10.095Z,99.59
2022-10-17T04:28:10.051Z,99.38
2022-10-17T04:29:10.057Z,99.13
2022-10-17T04:30:10.044Z,98.61
2022-10-17T04:31:10.095Z,98.24
2022-10-17T04:32:10.019Z,98.66
2022-10-17T04:33:10.041Z,98.82
2022-10-17T04:34:10.020Z,98.51
2022-10-17T04:35:09.984Z,98.26
2022-10-17T04:36:10.001Z,97.53
2022-10-17T04:37:09.944Z,97.74
2022-10-17T04:38:09.946Z,97.58
2022-10-17T04:39:09.990Z,98.20
2022-10-17T04:40:09.937Z,98.05
2022-10-17T04:41:09.904Z,97.53
2022-10-17T04:42:09.955Z,97.85
2022-10-17T04:43:09.899Z,97.85
2022-10-17T04:44:09.907Z,97.12
2022-10-17T04:45:09.880Z,97.02
2022-10-17T04:46:09.850Z,96.66
2022-10-17T04:47:09.857Z,96.45
2022-10-17T04:48:09.858Z,96.14
2022-10-17T04:49:09.817Z,96.14
2022-10-17T04:50:09.818Z,96.03
2022-10-17T04:51:09.797Z,96.03
2022-10-17T04:52:09.780Z,96.14
2022-10-17T04:53:09.783Z,96.08
2022-10-17T04:54:09.759Z,96.60
2022-10-17T04:55:09.753Z,97.17
2022-10-17T04:56:09.761Z,96.55
2022-10-17T04:57:09.755Z,95.99
2022-10-17T04:58:09.729Z,95.51
2022-10-17T04:59:09.719Z,95.62
2022-10-17T05:01:09.741Z,95.83
2022-10-17T05:02:09.709Z,96.24
2022-10-17T05:03:09.670Z,96.45
2022-10-17T05:04:09.692Z,96.24
2022-10-17T05:05:09.712Z,96.24
2022-10-17T05:06:09.633Z,96.34
2022-10-17T05:07:09.653Z,96.34
2022-10-17T05:08:09.618Z,96.34
2022-10-17T05:09:09.594Z,96.29
2022-10-17T05:10:09.583Z,96.29
2022-10-17T05:11:09.582Z,96.50
2022-10-17T05:12:10.486Z,96.91
2022-10-17T05:13:09.576Z,96.81
2022-10-17T05:14:09.716Z,97.33
2022-10-17T05:15:09.537Z,97.22
2022-10-17T05:16:09.527Z,97.07
2022-10-17T05:17:09.503Z,96.91
2022-10-17T05:18:09.480Z,97.02
2022-10-17T05:19:09.487Z,96.39
2022-10-17T05:20:09.500Z,96.19
2022-10-17T05:21:10.283Z,96.12
2022-10-17T05:22:09.435Z,97.78
2022-10-17T05:23:09.473Z,97.37
2022-10-17T05:24:09.435Z,96.85
2022-10-17T05:25:09.408Z,97.72
2022-10-17T05:26:09.405Z,97.93
2022-10-17T05:27:09.422Z,98.03
2022-10-17T05:28:09.376Z,97.72
2022-10-17T05:29:09.398Z,98.08
2022-10-17T05:30:09.359Z,98.29
2022-10-17T05:31:09.973Z,98.08
2022-10-17T05:32:09.347Z,99.02
2022-10-17T05:33:09.335Z,99.22
2022-10-17T05:34:11.615Z,99.99
2022-10-17T05:35:09.342Z,99.64
2022-10-17T05:36:09.303Z,99.74
2022-10-17T05:37:09.295Z,99.95
2022-10-17T05:38:09.321Z,99.79
2022-10-17T05:39:09.276Z,99.79
2022-10-17T05:40:09.251Z,99.99
2022-10-17T05:41:09.281Z,99.99
2022-10-17T05:42:09.212Z,99.99
2022-10-17T05:43:09.208Z,99.68
2022-10-17T05:44:09.205Z,99.99
2022-10-17T05:45:09.190Z,99.99
2022-10-17T05:46:09.188Z,99.99
2022-10-17T05:47:09.191Z,99.99
2022-10-17T05:48:09.153Z,99.99
2022-10-17T05:49:14.957Z,99.99
2022-10-17T05:50:09.219Z,99.99
2022-10-17T05:51:09.131Z,99.99
2022-10-17T05:52:09.122Z,99.99
2022-10-17T05:53:09.123Z,99.99
2022-10-17T05:54:09.121Z,99.99
2022-10-17T05:55:09.071Z,99.99
2022-10-17T05:56:09.165Z,99.99
2022-10-17T05:57:09.061Z,99.76
2022-10-17T05:58:11.747Z,98.68
2022-10-17T05:59:09.032Z,96.55
2022-10-17T06:00:09.007Z,95.47
2022-10-17T06:01:10.756Z,95.26
2022-10-17T06:02:09.050Z,95.16
2022-10-17T06:03:09.013Z,94.64
2022-10-17T06:04:08.984Z,94.74
2022-10-17T06:05:08.974Z,94.95
2022-10-17T06:06:08.937Z,95.06
2022-10-17T06:07:08.984Z,94.74
2022-10-17T06:08:08.935Z,94.23
2022-10-17T06:09:09.471Z,94.43
2022-10-17T06:10:08.902Z,94.64
2022-10-17T06:11:10.260Z,95.57
2022-10-17T06:12:08.887Z,95.26
2022-10-17T06:13:08.888Z,95.16
2022-10-17T06:14:08.846Z,95.16
2022-10-17T06:15:08.855Z,95.16
2022-10-17T06:16:08.897Z,95.93
2022-10-17T06:17:13.403Z,96.34
2022-10-17T06:18:08.835Z,96.14
2022-10-17T06:19:08.812Z,96.14
2022-10-17T06:20:08.804Z,96.34
2022-10-17T06:21:08.800Z,96.34
2022-10-17T06:22:08.790Z,96.03
2022-10-17T06:23:08.774Z,95.62
2022-10-17T06:24:08.758Z,95.31
2022-10-17T06:25:08.738Z,95.41
2022-10-17T06:26:08.719Z,95.41
2022-10-17T06:27:11.788Z,95.10
2022-10-17T06:28:08.714Z,95.10
2022-10-17T06:29:08.733Z,95.67
2022-10-17T06:30:08.676Z,95.98
2022-10-17T06:31:08.718Z,96.19
2022-10-17T06:32:11.200Z,96.33
2022-10-17T06:33:08.702Z,96.44
2022-10-17T06:34:08.635Z,96.23
2022-10-17T06:35:08.619Z,96.64
2022-10-17T06:36:08.643Z,96.79
2022-10-17T06:37:08.637Z,97.20
2022-10-17T06:38:08.610Z,97.72
2022-10-17T06:39:08.638Z,97.62
2022-10-17T06:40:08.563Z,97.41
2022-10-17T06:41:08.604Z,98.14
2022-10-17T06:42:08.553Z,98.24
2022-10-17T06:43:08.578Z,98.45
2022-10-17T06:44:08.566Z,98.41
2022-10-17T06:45:08.536Z,98.41
2022-10-17T06:46:08.703Z,97.99
2022-10-17T06:47:08.492Z,98.30
2022-10-17T06:48:08.502Z,98.36
2022-10-17T06:49:08.473Z,97.53
2022-10-17T06:50:08.500Z,97.43
2022-10-17T06:51:08.471Z,97.02
2022-10-17T06:52:08.427Z,96.97
2022-10-17T06:53:08.513Z,96.50
2022-10-17T06:54:08.421Z,96.50
2022-10-17T06:55:08.404Z,96.70
2022-10-17T06:56:08.399Z,97.02
2022-10-17T06:57:08.384Z,97.12
2022-10-17T06:58:08.386Z,97.12
2022-10-17T06:59:08.347Z,97.53
2022-10-17T07:00:08.405Z,97.43
2022-10-17T07:02:08.351Z,97.53
2022-10-17T07:03:08.325Z,97.85
2022-10-17T07:04:08.303Z,97.43
2022-10-17T07:05:08.285Z,96.91
2022-10-17T07:06:08.308Z,97.38
2022-10-17T07:07:08.286Z,97.03
2022-10-17T07:08:09.381Z,95.74
2022-10-17T07:09:08.234Z,95.01
2022-10-17T07:10:08.229Z,94.24
2022-10-17T07:11:08.253Z,93.93
2022-10-17T07:12:08.242Z,93.83
2022-10-17T07:13:08.224Z,93.83
2022-10-17T07:14:08.194Z,93.73
2022-10-17T07:15:08.179Z,93.41
2022-10-17T07:16:08.172Z,93.16
2022-10-17T07:17:08.244Z,92.76
2022-10-17T07:18:08.163Z,92.85
2022-10-17T07:19:08.135Z,92.85
2022-10-17T07:20:08.166Z,92.76
2022-10-17T07:21:08.122Z,92.44
2022-10-17T07:22:08.107Z,92.44
2022-10-17T07:23:08.120Z,92.65
2022-10-17T07:24:08.104Z,92.13
2022-10-17T07:25:08.068Z,92.44
2022-10-17T07:26:08.078Z,93.06
2022-10-17T07:27:08.036Z,93.37
2022-10-17T07:28:08.026Z,93.37
2022-10-17T07:29:08.142Z,92.96
2022-10-17T07:30:08.064Z,93.02
2022-10-17T07:31:08.021Z,92.71
2022-10-17T07:32:08.079Z,92.30
2022-10-17T07:33:08.108Z,92.19
2022-10-17T07:34:07.980Z,91.94
2022-10-17T07:35:07.969Z,91.84
2022-10-17T07:36:08.003Z,91.32
2022-10-17T07:37:07.973Z,90.77
2022-10-17T07:38:07.952Z,90.66
2022-10-17T07:39:07.895Z,90.77
2022-10-17T07:40:09.153Z,90.87
2022-10-17T07:41:07.900Z,90.97
2022-10-17T07:42:07.888Z,91.07
2022-10-17T07:43:07.933Z,90.77
2022-10-17T07:44:07.859Z,90.87
2022-10-17T07:45:07.853Z,90.31
2022-10-17T07:46:07.844Z,90.10
2022-10-17T07:47:07.812Z,89.89
2022-10-17T07:48:07.817Z,90.00
2022-10-17T07:49:07.817Z,90.10
2022-10-17T07:50:07.805Z,90.10
2022-10-17T07:51:07.769Z,89.89
2022-10-17T07:52:07.805Z,90.00
2022-10-17T07:53:07.780Z,90.00
2022-10-17T07:54:07.737Z,89.89
2022-10-17T07:55:07.744Z,90.10
2022-10-17T07:56:07.800Z,90.20
2022-10-17T07:57:07.716Z,90.31
2022-10-17T07:58:07.707Z,90.41
2022-10-17T07:59:09.415Z,90.31
2022-10-17T08:00:07.667Z,90.52
2022-10-17T08:01:10.695Z,90.83
2022-10-17T08:02:07.716Z,90.83
2022-10-17T08:03:07.656Z,90.93
2022-10-17T08:04:07.628Z,90.62
2022-10-17T08:05:07.667Z,90.93
2022-10-17T08:06:07.622Z,90.72
2022-10-17T08:07:21.739Z,90.31
2022-10-17T08:08:07.623Z,90.20
2022-10-17T08:09:07.580Z,90.37
2022-10-17T08:11:07.590Z,90.37
2022-10-17T08:12:07.535Z,90.26
2022-10-17T08:13:07.618Z,90.26
2022-10-17T08:14:07.522Z,90.16
2022-10-17T08:15:07.512Z,89.95
2022-10-17T08:16:07.523Z,89.86
2022-10-17T08:17:07.538Z,89.54
2022-10-17T08:18:07.468Z,89.65
2022-10-17T08:20:07.465Z,88.37
2022-10-17T08:21:08.440Z,87.95
2022-10-17T08:22:07.433Z,88.37
2022-10-17T08:23:07.437Z,88.26
2022-10-17T08:24:07.427Z,88.06
2022-10-17T08:25:07.386Z,88.06
2022-10-17T08:26:07.506Z,88.16
2022-10-17T08:27:07.379Z,87.60
2022-10-17T08:29:07.483Z,87.29
2022-10-17T08:30:07.333Z,87.29
2022-10-17T08:31:07.326Z,87.08
2022-10-17T08:32:09.571Z,87.08
2022-10-17T08:33:07.300Z,86.94
2022-10-17T08:34:07.315Z,86.53
2022-10-17T08:35:07.333Z,86.32
2022-10-17T08:36:07.324Z,86.22
2022-10-17T08:37:07.303Z,86.53
2022-10-17T08:38:09.048Z,86.94
2022-10-17T08:39:07.228Z,86.68
2022-10-17T08:40:07.231Z,86.88
2022-10-17T08:41:07.272Z,86.78
2022-10-17T08:42:07.250Z,86.88
2022-10-17T08:43:07.197Z,86.88
2022-10-17T08:44:07.187Z,86.43
2022-10-17T08:45:07.189Z,86.63
2022-10-17T08:46:07.184Z,86.84
2022-10-17T08:47:07.151Z,86.02
2022-10-17T08:48:07.135Z,86.43
2022-10-17T08:49:10.056Z,86.57
2022-10-17T08:50:07.150Z,86.02
2022-10-17T08:51:07.104Z,85.81
2022-10-17T08:52:07.120Z,85.60
2022-10-17T08:53:07.102Z,85.57
2022-10-17T08:54:07.054Z,85.15
2022-10-17T08:55:07.121Z,84.91
2022-10-17T08:56:11.882Z,84.56
2022-10-17T08:57:07.075Z,83.63
2022-10-17T08:58:07.206Z,82.87
2022-10-17T08:59:06.999Z,82.77
2022-10-17T09:00:06.983Z,81.74
2022-10-17T09:01:12.738Z,82.35
2022-10-17T09:02:07.005Z,81.81
2022-10-17T09:03:07.060Z,81.09
2022-10-17T09:04:06.962Z,82.35
2022-10-17T09:05:06.940Z,82.35
2022-10-17T09:06:06.913Z,82.25
2022-10-17T09:07:06.999Z,82.19
2022-10-17T09:08:06.915Z,82.29
2022-10-17T09:09:06.943Z,83.01
2022-10-17T09:10:06.899Z,83.12
2022-10-17T09:11:06.909Z,83.15
2022-10-17T09:12:06.868Z,83.47
2022-10-17T09:13:07.943Z,83.71
2022-10-17T09:14:06.873Z,83.50
2022-10-17T09:15:06.812Z,84.01
2022-10-17T09:16:06.807Z,83.75
2022-10-17T09:17:06.844Z,84.06
2022-10-17T09:18:06.800Z,84.36
2022-10-17T09:19:06.801Z,84.36
2022-10-17T09:20:06.839Z,84.99
2022-10-17T09:21:06.766Z,85.19
2022-10-17T09:22:06.748Z,85.19
2022-10-17T09:23:06.769Z,85.30
2022-10-17T09:24:09.589Z,85.71
2022-10-17T09:25:06.726Z,85.25
2022-10-17T09:26:06.732Z,85.15
2022-10-17T09:27:06.715Z,85.05
2022-10-17T09:28:06.695Z,84.84
2022-10-17T09:29:06.754Z,84.64
2022-10-17T09:30:07.260Z,84.49
2022-10-17T09:31:06.667Z,84.29
2022-10-17T09:32:06.648Z,84.80
2022-10-17T09:33:06.634Z,85.01
2022-10-17T09:34:06.606Z,85.01
2022-10-17T09:35:06.613Z,85.01
2022-10-17T09:36:06.642Z,85.01
2022-10-17T09:37:06.589Z,84.08
2022-10-17T09:38:06.619Z,83.87
2022-10-17T09:39:06.556Z,83.47
2022-10-17T09:40:06.550Z,83.56
2022-10-17T09:41:19.974Z,83.67
2022-10-17T09:42:06.545Z,83.67
2022-10-17T09:43:06.522Z,83.47
2022-10-17T09:44:06.504Z,82.95
2022-10-17T09:45:06.498Z,82.95
2022-10-17T09:46:06.479Z,82.95
2022-10-17T09:47:06.476Z,82.84
2022-10-17T09:48:06.447Z,82.40
2022-10-17T09:49:06.449Z,81.98
2022-10-17T09:50:06.439Z,81.98
2022-10-17T09:51:21.793Z,81.98
2022-10-17T09:52:06.500Z,82.29
2022-10-17T09:53:06.404Z,81.63
2022-10-17T09:54:06.427Z,81.39
2022-10-17T09:55:06.379Z,81.19
2022-10-17T09:56:06.373Z,81.70
2022-10-17T09:57:06.428Z,81.49
2022-10-17T09:58:06.368Z,81.09
2022-10-17T09:59:09.314Z,80.88
2022-10-17T10:00:06.403Z,80.77
2022-10-17T10:01:06.367Z,81.02
2022-10-17T10:02:06.321Z,81.12
2022-10-17T10:03:06.315Z,81.33
2022-10-17T10:04:06.331Z,81.74
2022-10-17T10:05:07.065Z,82.05
2022-10-17T10:06:06.248Z,82.05
2022-10-17T10:07:06.231Z,82.46
2022-10-17T10:08:06.231Z,82.29
2022-10-17T10:09:06.252Z,83.01
2022-10-17T10:10:06.249Z,83.12
2022-10-17T10:11:06.538Z,83.32
2022-10-17T10:12:06.206Z,82.29
2022-10-17T10:13:06.193Z,81.88
2022-10-17T10:14:06.170Z,81.26
2022-10-17T10:15:06.178Z,81.77
2022-10-17T10:16:06.201Z,81.26
2022-10-17T10:17:06.133Z,80.79
2022-10-17T10:18:06.104Z,81.30
2022-10-17T10:19:08.429Z,81.77
2022-10-17T10:20:06.258Z,81.47
2022-10-17T10:21:06.095Z,82.09
2022-10-17T10:22:06.062Z,82.29
2022-10-17T10:23:06.067Z,81.98
2022-10-17T10:24:06.079Z,82.29
2022-10-17T10:25:06.056Z,81.16
2022-10-17T10:26:06.059Z,81.05
2022-10-17T10:27:06.027Z,81.23
2022-10-17T10:28:06.026Z,80.67
2022-10-17T10:29:06.121Z,80.77
2022-10-17T10:30:05.996Z,78.20
2022-10-17T10:31:06.045Z,78.61
2022-10-17T10:32:05.975Z,77.69
2022-10-17T10:33:05.944Z,78.30
2022-10-17T10:34:05.984Z,77.79
2022-10-17T10:35:05.940Z,78.10
2022-10-17T10:36:05.929Z,78.00
2022-10-17T10:37:05.921Z,77.79
2022-10-17T10:38:05.901Z,77.79
2022-10-17T10:39:05.902Z,78.20
2022-10-17T10:40:05.890Z,77.48
2022-10-17T10:41:05.931Z,77.17
2022-10-17T10:42:05.834Z,77.28
2022-10-17T10:43:05.874Z,77.38
2022-10-17T10:44:05.858Z,77.69
2022-10-17T10:45:06.336Z,78.00
2022-10-17T10:46:05.841Z,76.97
2022-10-17T10:47:05.796Z,77.58
2022-10-17T10:48:05.773Z,77.07
2022-10-17T10:49:05.816Z,78.20
2022-10-17T10:50:05.766Z,77.58
2022-10-17T10:51:05.796Z,77.17
2022-10-17T10:52:05.743Z,77.89
2022-10-17T10:53:05.721Z,76.97
2022-10-17T10:54:05.703Z,76.97
2022-10-17T10:55:05.741Z,77.28
2022-10-17T10:56:05.697Z,76.97
2022-10-17T10:57:05.686Z,76.45
2022-10-17T10:58:05.683Z,76.86
2022-10-17T10:59:05.733Z,77.34
2022-10-17T11:00:05.645Z,76.93
2022-10-17T11:01:05.745Z,76.83
2022-10-17T11:02:05.643Z,76.93
2022-10-17T11:03:07.576Z,77.24
2022-10-17T11:04:05.617Z,76.73
2022-10-17T11:05:05.617Z,76.93
2022-10-17T11:06:05.591Z,77.65
2022-10-17T11:07:05.607Z,77.72
2022-10-17T11:08:05.559Z,77.51
2022-10-17T11:09:05.585Z,77.51
2022-10-17T11:10:05.517Z,77.41
2022-10-17T11:11:05.524Z,77.92
2022-10-17T11:12:05.515Z,76.59
2022-10-17T11:13:05.500Z,77.20
2022-10-17T11:14:05.539Z,77.34
2022-10-17T11:15:05.512Z,77.65
2022-10-17T11:16:05.484Z,77.96
2022-10-17T11:17:05.479Z,78.27
2022-10-17T11:18:05.452Z,77.75
2022-10-17T11:19:05.525Z,77.96
2022-10-17T11:20:05.444Z,77.96
2022-10-17T11:21:05.414Z,78.17
2022-10-17T11:22:05.415Z,78.82
2022-10-17T11:23:05.391Z,79.44
2022-10-17T11:24:07.037Z,79.33
2022-10-17T11:25:05.411Z,79.33
2022-10-17T11:26:05.395Z,79.79
2022-10-17T11:27:05.343Z,79.47
2022-10-17T11:28:05.501Z,80.09
2022-10-17T11:29:05.384Z,80.19
2022-10-17T11:30:05.311Z,80.40
2022-10-17T11:31:07.275Z,80.61
2022-10-17T11:32:06.121Z,79.68
2022-10-17T11:33:05.278Z,79.88
2022-10-17T11:34:05.254Z,79.47
2022-10-17T11:35:05.274Z,80.36
2022-10-17T11:36:05.255Z,80.26
2022-10-17T11:37:05.236Z,78.82
2022-10-17T11:38:05.240Z,79.33
2022-10-17T11:39:05.258Z,79.50
2022-10-17T11:40:05.209Z,78.78
2022-10-17T11:41:05.181Z,78.61
2022-10-17T11:42:05.162Z,79.03
2022-10-17T11:43:05.232Z,78.82
2022-10-17T11:44:05.143Z,79.09
2022-10-17T11:45:05.169Z,79.71
2022-10-17T11:46:05.199Z,79.50
2022-10-17T11:47:05.156Z,79.09
2022-10-17T11:48:05.153Z,78.58
2022-10-17T11:49:05.151Z,78.41
2022-10-17T11:52:05.094Z,78.68
2022-10-17T11:53:05.119Z,78.37
2022-10-17T11:54:05.042Z,77.96
2022-10-17T11:55:05.058Z,78.17
2022-10-17T11:56:05.014Z,78.27
2022-10-17T11:57:05.048Z,77.45
2022-10-17T11:58:05.033Z,77.65
2022-10-17T11:59:05.020Z,77.75
2022-10-17T12:00:05.024Z,78.03
2022-10-17T12:01:05.010Z,77.62
2022-10-17T12:02:04.954Z,77.24
2022-10-17T12:03:04.947Z,77.10
2022-10-17T12:04:05.038Z,76.69
2022-10-17T12:05:04.945Z,76.69
2022-10-17T12:06:04.932Z,77.00
2022-10-17T12:07:04.887Z,77.00
2022-10-17T12:08:04.904Z,76.48
2022-10-17T12:09:04.900Z,76.59
2022-10-17T12:10:04.885Z,76.59
2022-10-17T12:11:04.869Z,76.69
2022-10-17T12:12:04.859Z,75.56
2022-10-17T12:13:04.830Z,75.25
2022-10-17T12:14:06.122Z,76.18
2022-10-17T12:15:04.791Z,76.69
2022-10-17T12:16:04.788Z,75.15
2022-10-17T12:17:04.790Z,76.38
2022-10-17T12:18:04.777Z,75.04
2022-10-17T12:19:04.752Z,75.87
2022-10-17T12:20:04.757Z,76.07
2022-10-17T12:21:04.756Z,76.18
2022-10-17T12:22:04.728Z,75.76
2022-10-17T12:23:04.733Z,75.93
2022-10-17T12:24:04.690Z,75.35
2022-10-17T12:25:04.702Z,75.87
2022-10-17T12:26:05.362Z,75.97
2022-10-17T12:27:04.661Z,75.67
2022-10-17T12:28:04.657Z,75.97
2022-10-17T12:29:04.727Z,76.07
2022-10-17T12:30:04.647Z,76.07
2022-10-17T12:31:04.663Z,75.87
2022-10-17T12:32:04.626Z,76.07
2022-10-17T12:33:06.466Z,76.07
2022-10-17T12:34:04.625Z,75.97
2022-10-17T12:35:04.565Z,76.28
2022-10-17T12:36:04.642Z,75.56
2022-10-17T12:37:04.835Z,75.25
2022-10-17T12:38:04.538Z,75.39
2022-10-17T12:39:04.539Z,75.56
2022-10-17T12:40:04.521Z,75.87
2022-10-17T12:41:05.055Z,76.07
2022-10-17T12:42:04.551Z,75.67
2022-10-17T12:43:04.484Z,76.21
2022-10-17T12:44:04.485Z,76.62
2022-10-17T12:45:04.495Z,77.14
2022-10-17T12:46:04.482Z,77.31
2022-10-17T12:47:04.446Z,77.51
2022-10-17T12:48:05.200Z,77.14
2022-10-17T12:49:04.432Z,76.93
2022-10-17T12:50:04.410Z,77.45
2022-10-17T12:51:30.875Z,77.86
2022-10-17T12:52:04.447Z,77.86
2022-10-17T12:53:04.372Z,77.34
2022-10-17T12:54:04.369Z,77.75
2022-10-17T12:55:12.226Z,78.99
2022-10-17T12:56:04.357Z,77.65
2022-10-17T12:57:04.334Z,77.86
2022-10-17T12:58:04.339Z,77.96
2022-10-17T12:59:04.339Z,77.86
2022-10-17T13:00:04.284Z,78.58